createdAt,value
2022-12-14T00:03:45.668Z,12.93
2022-12-14T00:07:49.063Z,12.03
2022-12-14T00:11:50.912Z,11.87
2022-12-14T00:15:52.532Z,11.57
2022-12-14T00:19:54.939Z,12.07
2022-12-14T00:23:58.522Z,12.50
2022-12-14T00:28:00.196Z,12.43
2022-12-14T00:32:01.808Z,12.50
2022-12-14T00:36:05.195Z,16.30
2022-12-14T00:40:08.174Z,29.93
2022-12-14T00:44:09.851Z,27.73
2022-12-14T00:48:12.328Z,23.00
2022-12-14T00:52:14.098Z,14.00
2022-12-14T00:56:16.245Z,14.87
2022-12-14T01:00:18.100Z,13.17
2022-12-14T01:04:22.291Z,14.30
2022-12-14T01:08:24.232Z,13.10
2022-12-14T01:12:25.892Z,13.97
2022-12-14T01:16:27.546Z,13.50
2022-12-14T01:20:29.192Z,13.17
2022-12-14T01:24:30.882Z,12.83
2022-12-14T01:28:34.940Z,14.63
2022-12-14T01:32:36.734Z,14.37
2022-12-14T01:36:38.842Z,14.17
2022-12-14T01:40:40.851Z,13.57
2022-12-14T01:44:42.523Z,14.57
2022-12-14T01:48:45.486Z,14.47
2022-12-14T01:52:49.353Z,14.93
2022-12-14T01:56:52.251Z,13.97
2022-12-14T02:00:56.723Z,15.00
2022-12-14T02:05:02.145Z,14.60
2022-12-14T02:09:12.420Z,14.70
2022-12-14T02:13:20.522Z,14.97
2022-12-14T02:17:22.711Z,15.00
2022-12-14T02:21:57.929Z,15.10
2022-12-14T02:26:09.112Z,15.70
2022-12-14T02:30:22.729Z,16.27
2022-12-14T02:34:57.851Z,14.40
2022-12-14T02:39:07.546Z,15.60
2022-12-14T02:43:28.173Z,14.83
2022-12-14T02:47:49.382Z,15.07
2022-12-14T02:52:03.003Z,14.27
2022-12-14T02:56:10.118Z,15.23
2022-12-14T03:00:12.569Z,16.37
2022-12-14T03:04:14.883Z,15.57
2022-12-14T03:08:16.982Z,16.30
2022-12-14T03:12:20.999Z,16.40
2022-12-14T03:16:27.184Z,15.90
2022-12-14T03:20:33.016Z,16.57
2022-12-14T03:24:49.381Z,15.67
2022-12-14T03:28:55.916Z,16.60
2022-12-14T03:33:02.706Z,16.07
2022-12-14T03:37:14.776Z,16.17
2022-12-14T03:41:27.547Z,16.47
2022-12-14T03:45:49.903Z,17.30
2022-12-14T03:49:58.343Z,16.53
2022-12-14T03:54:08.702Z,17.40
2022-12-14T03:58:16.370Z,17.20
2022-12-14T04:02:40.887Z,17.27
2022-12-14T04:07:19.625Z,16.57
2022-12-14T04:11:42.129Z,17.10
2022-12-14T04:16:04.802Z,18.53
2022-12-14T04:20:27.957Z,17.20
2022-12-14T04:24:51.000Z,18.43
2022-12-14T04:29:22.669Z,17.93
2022-12-14T04:33:43.244Z,17.67
2022-12-14T04:37:52.537Z,17.33
2022-12-14T04:41:57.703Z,19.00
2022-12-14T04:46:05.505Z,18.20
2022-12-14T04:50:17.585Z,17.90
2022-12-14T04:54:22.928Z,18.47
2022-12-14T04:58:30.095Z,17.87
2022-12-14T05:03:10.327Z,18.93
2022-12-14T05:07:22.898Z,18.33
2022-12-14T05:11:54.742Z,18.20
2022-12-14T05:15:58.636Z,18.77
2022-12-14T05:20:00.248Z,18.80
2022-12-14T05:24:03.438Z,18.83
2022-12-14T05:28:05.327Z,17.87
2022-12-14T05:32:08.847Z,16.97
2022-12-14T05:36:11.009Z,18.87
2022-12-14T05:40:13.391Z,18.60
2022-12-14T05:44:15.080Z,18.03
2022-12-14T05:48:16.692Z,18.70
2022-12-14T05:52:18.457Z,17.87
2022-12-14T05:56:20.845Z,19.73
2022-12-14T06:00:22.611Z,19.40
2022-12-14T06:04:24.317Z,19.43
2022-12-14T06:08:26.036Z,18.23
2022-12-14T06:12:28.794Z,19.03
2022-12-14T06:16:30.499Z,18.70
2022-12-14T06:20:32.186Z,19.43
2022-12-14T06:24:33.872Z,19.60
2022-12-14T06:28:35.911Z,19.90
2022-12-14T06:32:37.527Z,20.30
2022-12-14T06:36:41.674Z,20.43
2022-12-14T06:40:43.554Z,20.40
2022-12-14T06:44:45.240Z,20.23
2022-12-14T06:48:54.698Z,21.17
2022-12-14T06:52:56.612Z,20.57
2022-12-14T06:56:58.308Z,24.70
2022-12-14T07:01:08.913Z,24.07
2022-12-14T07:05:10.715Z,21.37
2022-12-14T07:09:14.197Z,26.17
2022-12-14T07:13:15.832Z,21.97
2022-12-14T07:17:17.630Z,23.20
2022-12-14T07:21:20.741Z,23.03
2022-12-14T07:25:22.401Z,20.63
2022-12-14T07:29:24.054Z,27.37
2022-12-14T07:33:26.834Z,27.30
2022-12-14T07:37:28.756Z,26.10
2022-12-14T07:41:31.501Z,23.03
2022-12-14T07:45:33.166Z,22.20
2022-12-14T07:49:34.786Z,21.10
2022-12-14T07:53:38.480Z,21.27
2022-12-14T07:57:40.319Z,21.27
2022-12-14T08:01:43.538Z,20.77
2022-12-14T08:05:45.328Z,21.37
2022-12-14T08:09:47.998Z,21.60
2022-12-14T08:14:05.998Z,24.23
2022-12-14T08:18:07.679Z,21.93
2022-12-14T08:22:09.300Z,21.03
2022-12-14T08:26:10.964Z,22.70
2022-12-14T08:30:12.990Z,23.67
2022-12-14T08:34:20.703Z,22.63
2022-12-14T08:38:22.451Z,23.27
2022-12-14T08:42:24.127Z,22.63
2022-12-14T08:46:28.074Z,22.77
2022-12-14T08:50:30.000Z,26.10
2022-12-14T08:54:31.740Z,24.20
2022-12-14T08:58:34.673Z,22.23
2022-12-14T09:02:36.802Z,22.53
2022-12-14T09:06:39.522Z,23.10
2022-12-14T09:10:41.291Z,23.80
2022-12-14T09:14:46.482Z,23.03
2022-12-14T09:18:51.051Z,25.07
2022-12-14T09:22:52.869Z,24.97
2022-12-14T09:26:54.848Z,23.00
2022-12-14T09:30:58.244Z,23.17
2022-12-14T09:34:59.990Z,22.60
2022-12-14T09:39:02.177Z,21.73
2022-12-14T09:43:06.735Z,22.07
2022-12-14T09:47:13.030Z,22.47
2022-12-14T09:51:17.247Z,21.50
2022-12-14T09:55:21.848Z,23.50
2022-12-14T09:59:28.117Z,23.47
2022-12-14T10:04:06.772Z,22.93
2022-12-14T10:08:17.027Z,22.60
2022-12-14T10:12:39.039Z,24.07
2022-12-14T10:17:11.125Z,23.47
2022-12-14T10:21:20.393Z,23.40
2022-12-14T10:25:25.844Z,28.80
2022-12-14T10:29:41.350Z,25.63
2022-12-14T10:33:45.569Z,23.67
2022-12-14T10:38:13.343Z,23.60
2022-12-14T10:42:51.220Z,25.23
2022-12-14T10:47:11.815Z,23.60
2022-12-14T10:51:21.960Z,24.67
2022-12-14T10:55:27.725Z,24.53
2022-12-14T10:59:38.580Z,25.87
2022-12-14T11:03:43.806Z,25.20
2022-12-14T11:07:49.574Z,25.43
2022-12-14T11:12:03.580Z,23.30
2022-12-14T11:16:36.391Z,23.40
2022-12-14T11:20:49.448Z,24.23
2022-12-14T11:24:51.375Z,24.87
2022-12-14T11:28:56.435Z,22.97
2022-12-14T11:32:58.206Z,22.63
2022-12-14T11:37:22.498Z,23.07
2022-12-14T11:41:24.600Z,21.17
2022-12-14T11:45:26.262Z,22.10
2022-12-14T11:49:27.901Z,23.70
2022-12-14T11:53:29.567Z,22.73
2022-12-14T11:57:39.661Z,25.43
2022-12-14T12:01:42.527Z,28.57
2022-12-14T12:05:44.945Z,24.60
2022-12-14T12:09:46.654Z,23.90
2022-12-14T12:13:53.485Z,25.83
2022-12-14T12:18:28.850Z,27.73
2022-12-14T12:22:31.464Z,47.50
2022-12-14T12:26:50.089Z,22.50
2022-12-14T12:30:56.276Z,22.27
2022-12-14T12:35:11.807Z,24.23
2022-12-14T12:39:21.382Z,23.37
2022-12-14T12:43:31.967Z,22.73
2022-12-14T12:47:48.353Z,22.73
2022-12-14T12:51:58.698Z,22.13
2022-12-14T12:56:43.560Z,22.87
2022-12-14T13:00:55.550Z,22.70
2022-12-14T13:05:10.939Z,24.07
2022-12-14T13:09:24.590Z,22.40
2022-12-14T13:13:31.090Z,21.80
2022-12-14T13:17:32.671Z,21.97
2022-12-14T13:21:38.337Z,22.73
2022-12-14T13:25:58.151Z,23.23
2022-12-14T13:30:24.626Z,22.43
2022-12-14T13:34:29.256Z,22.40
2022-12-14T13:38:58.921Z,22.67
2022-12-14T13:43:19.330Z,22.37
2022-12-14T13:47:49.309Z,24.37
2022-12-14T13:51:52.355Z,24.03
2022-12-14T13:55:58.864Z,22.73
2022-12-14T14:00:01.915Z,21.87
2022-12-14T14:04:14.072Z,22.67
2022-12-14T14:08:41.378Z,23.07
2022-12-14T14:12:44.844Z,22.43
2022-12-14T14:16:57.026Z,23.27
2022-12-14T14:21:22.033Z,24.27
2022-12-14T14:25:40.220Z,23.57
2022-12-14T14:29:47.379Z,25.60
2022-12-14T14:33:55.904Z,24.63
2022-12-14T14:38:08.938Z,24.60
2022-12-14T14:42:20.882Z,25.47
2022-12-14T14:46:36.124Z,27.73
2022-12-14T14:50:42.374Z,28.60
2022-12-14T14:55:16.177Z,26.37
2022-12-14T14:59:14.803Z,24.83
2022-12-14T15:03:19.345Z,28.07
2022-12-14T15:07:29.864Z,32.07
2022-12-14T15:11:48.757Z,29.63
2022-12-14T15:15:53.078Z,27.27
2022-12-14T15:19:56.893Z,28.67
2022-12-14T15:23:58.556Z,38.87
2022-12-14T15:28:05.712Z,32.13
2022-12-14T15:32:07.552Z,30.80
2022-12-14T15:36:15.729Z,33.13
2022-12-14T15:40:30.191Z,29.93
2022-12-14T15:44:32.061Z,33.17
2022-12-14T15:48:35.218Z,29.70
2022-12-14T15:52:37.088Z,29.77
2022-12-14T15:56:50.973Z,27.93
2022-12-14T16:00:56.807Z,28.63
2022-12-14T16:05:02.132Z,26.20
2022-12-14T16:09:41.578Z,26.93
2022-12-14T16:13:44.951Z,28.80
2022-12-14T16:17:46.816Z,29.20
2022-12-14T16:22:05.070Z,29.27
2022-12-14T16:26:15.976Z,40.00
2022-12-14T16:30:33.021Z,36.43
2022-12-14T16:34:34.926Z,30.60
2022-12-14T16:38:56.125Z,29.27
2022-12-14T16:42:57.893Z,30.03
2022-12-14T16:47:02.667Z,30.37
2022-12-14T16:51:28.582Z,27.77
2022-12-14T16:56:01.464Z,32.83
2022-12-14T17:00:06.030Z,32.17
2022-12-14T17:04:09.368Z,31.27
2022-12-14T17:08:11.640Z,29.73
2022-12-14T17:12:15.429Z,29.20
2022-12-14T17:16:23.296Z,31.33
2022-12-14T17:20:36.727Z,24.57
2022-12-14T17:24:38.440Z,23.10
2022-12-14T17:28:40.128Z,23.57
2022-12-14T17:32:42.808Z,17.77
2022-12-14T17:36:45.598Z,15.20
2022-12-14T17:40:48.842Z,11.40
2022-12-14T17:44:54.434Z,12.60
2022-12-14T17:48:56.995Z,12.70
2022-12-14T17:53:00.265Z,11.73
2022-12-14T17:57:02.083Z,12.50
2022-12-14T18:01:04.557Z,12.30
2022-12-14T18:05:11.805Z,12.50
2022-12-14T18:09:13.484Z,11.27
2022-12-14T18:13:15.567Z,13.20
2022-12-14T18:17:17.272Z,14.00
2022-12-14T18:21:28.094Z,16.17
2022-12-14T18:25:34.177Z,14.57
2022-12-14T18:29:35.857Z,13.43
2022-12-14T18:33:38.921Z,13.93
2022-12-14T18:37:40.624Z,15.67
2022-12-14T18:41:42.540Z,14.03
2022-12-14T18:45:44.244Z,13.80
2022-12-14T18:49:45.942Z,14.57
2022-12-14T18:53:47.822Z,18.07
2022-12-14T18:57:50.811Z,15.17
2022-12-14T19:01:52.780Z,18.47
2022-12-14T19:10:40.219Z,14.10
2022-12-14T19:14:41.929Z,13.43
2022-12-14T19:18:43.591Z,12.57
2022-12-14T19:22:45.833Z,11.57
2022-12-14T19:26:49.503Z,13.73
2022-12-14T19:30:51.422Z,13.50
2022-12-14T19:34:53.384Z,13.53
2022-12-14T19:38:55.135Z,14.33
2022-12-14T19:42:58.090Z,13.17
2022-12-14T19:47:00.851Z,12.73
2022-12-14T19:51:08.580Z,12.30
2022-12-14T19:55:11.629Z,12.60
2022-12-14T19:59:13.346Z,12.77
2022-12-14T20:03:15.182Z,12.33
2022-12-14T20:07:17.080Z,13.23
2022-12-14T20:11:20.347Z,14.40
2022-12-14T20:15:22.044Z,13.83
2022-12-14T20:19:24.422Z,16.03
2022-12-14T20:23:26.076Z,16.73
2022-12-14T20:27:27.859Z,15.33
2022-12-14T20:31:29.721Z,15.90
2022-12-14T20:35:33.452Z,16.07
2022-12-14T20:39:35.123Z,14.50
2022-12-14T20:43:38.889Z,15.37
2022-12-14T20:47:40.563Z,16.53
2022-12-14T20:51:43.972Z,15.40
2022-12-14T20:55:45.678Z,15.87
2022-12-14T20:59:47.382Z,17.00
2022-12-14T21:03:50.656Z,16.40
2022-12-14T21:07:52.438Z,18.00
2022-12-14T21:12:12.801Z,17.40
2022-12-14T21:16:14.544Z,18.40
2022-12-14T21:20:16.422Z,17.53
2022-12-14T21:24:37.515Z,18.87
2022-12-14T21:28:40.424Z,17.03
2022-12-14T21:32:42.120Z,19.03
2022-12-14T21:36:44.068Z,18.93
2022-12-14T21:41:13.791Z,17.80
2022-12-14T21:45:15.473Z,17.70
2022-12-14T21:49:17.437Z,17.60
2022-12-14T21:53:19.136Z,20.40
2022-12-14T21:57:42.497Z,18.23
2022-12-14T22:01:44.792Z,18.70
2022-12-14T22:05:46.916Z,18.27
2022-12-14T22:09:49.593Z,18.27
2022-12-14T22:13:51.761Z,19.60
2022-12-14T22:17:53.403Z,18.60
2022-12-14T22:21:55.216Z,19.07
2022-12-14T22:25:57.305Z,20.10
2022-12-14T22:29:59.024Z,19.97
2022-12-14T22:34:01.277Z,19.70
2022-12-14T22:38:03.003Z,21.37
2022-12-14T22:42:04.906Z,21.47
2022-12-14T22:46:07.002Z,23.43
2022-12-14T22:50:09.212Z,22.50
2022-12-14T22:54:24.786Z,19.43
2022-12-14T22:58:28.767Z,19.23
2022-12-14T23:02:31.292Z,19.07
2022-12-14T23:06:33.952Z,19.50
2022-12-14T23:11:44.806Z,19.13
2022-12-14T23:17:00.853Z,19.40
2022-12-14T23:23:00.307Z,20.67
2022-12-14T23:28:03.628Z,19.73
2022-12-14T23:32:24.024Z,20.10
2022-12-14T23:36:44.140Z,21.73
2022-12-14T23:43:31.735Z,20.00
2022-12-14T23:47:52.584Z,18.47
2022-12-14T23:52:13.080Z,17.67
2022-12-14T23:56:33.570Z,18.80
